sensor_id;sensor_type;location;lat;lon;timestamp;temperature;humidity
23546;DHT22;11951;52.138;4.464;2022-08-07T12:12:27;26.20;76.30
23546;DHT22;11951;52.138;4.464;2022-08-07T12:15:00;26.80;74.90
23546;DHT22;11951;52.138;4.464;2022-08-07T12:17:29;27.10;75.20
23546;DHT22;11951;52.138;4.464;2022-08-07T12:19:58;27.50;74.30
23546;DHT22;11951;52.138;4.464;2022-08-07T12:22:40;27.60;73.90
23546;DHT22;11951;52.138;4.464;2022-08-07T12:28:15;28.20;72.40
23546;DHT22;11951;52.138;4.464;2022-08-07T12:30:43;28.50;71.70
23546;DHT22;11951;52.138;4.464;2022-08-07T12:33:20;28.20;71.30
23546;DHT22;11951;52.138;4.464;2022-08-07T12:35:52;28.60;71.10
23546;DHT22;11951;52.138;4.464;2022-08-07T12:38:19;29.20;71.50
23546;DHT22;11951;52.138;4.464;2022-08-07T12:40:47;29.60;68.70
23546;DHT22;11951;52.138;4.464;2022-08-07T12:43:13;29.60;68.60
23546;DHT22;11951;52.138;4.464;2022-08-07T12:48:44;29.90;68.40
23546;DHT22;11951;52.138;4.464;2022-08-07T12:51:14;29.70;68.30
23546;DHT22;11951;52.138;4.464;2022-08-07T12:56:35;29.50;69.30
23546;DHT22;11951;52.138;4.464;2022-08-07T12:59:10;29.20;68.40
23546;DHT22;11951;52.138;4.464;2022-08-07T13:20:08;28.10;71.20
23546;DHT22;11951;52.138;4.464;2022-08-07T13:25:12;27.60;73.30
23546;DHT22;11951;52.138;4.464;2022-08-07T13:27:39;27.30;75.00
23546;DHT22;11951;52.138;4.464;2022-08-07T13:30:08;27.40;73.30
23546;DHT22;11951;52.138;4.464;2022-08-07T13:32:37;27.30;73.40
23546;DHT22;11951;52.138;4.464;2022-08-07T13:35:13;27.30;74.00
23546;DHT22;11951;52.138;4.464;2022-08-07T13:37:48;26.80;75.40
23546;DHT22;11951;52.138;4.464;2022-08-07T13:40:24;26.60;75.50
23546;DHT22;11951;52.138;4.464;2022-08-07T13:42:51;26.50;76.90
23546;DHT22;11951;52.138;4.464;2022-08-07T13:45:21;26.50;77.00
23546;DHT22;11951;52.138;4.464;2022-08-07T13:47:51;26.20;77.60
23546;DHT22;11951;52.138;4.464;2022-08-07T13:50:19;25.40;78.10
23546;DHT22;11951;52.138;4.464;2022-08-07T13:52:46;25.00;79.90
23546;DHT22;11951;52.138;4.464;2022-08-07T13:55:13;25.10;80.60
23546;DHT22;11951;52.138;4.464;2022-08-07T13:57:41;25.40;79.70
23546;DHT22;11951;52.138;4.464;2022-08-07T14:00:08;25.60;79.50
23546;DHT22;11951;52.138;4.464;2022-08-07T14:02:34;25.60;79.40
23546;DHT22;11951;52.138;4.464;2022-08-07T14:05:01;25.60;79.50
23546;DHT22;11951;52.138;4.464;2022-08-07T14:07:29;25.80;78.60
23546;DHT22;11951;52.138;4.464;2022-08-07T14:09:57;25.80;77.80
23546;DHT22;11951;52.138;4.464;2022-08-07T14:12:32;25.70;78.50
23546;DHT22;11951;52.138;4.464;2022-08-07T14:15:04;25.80;78.30
23546;DHT22;11951;52.138;4.464;2022-08-07T14:17:33;25.60;78.90
23546;DHT22;11951;52.138;4.464;2022-08-07T14:20:03;25.60;79.30
23546;DHT22;11951;52.138;4.464;2022-08-07T14:22:30;25.40;79.70
23546;DHT22;11951;52.138;4.464;2022-08-07T14:25:12;25.10;79.40
23546;DHT22;11951;52.138;4.464;2022-08-07T14:27:45;24.90;80.00
23546;DHT22;11951;52.138;4.464;2022-08-07T14:30:11;25.00;80.90
23546;DHT22;11951;52.138;4.464;2022-08-07T14:32:44;25.20;81.10
23546;DHT22;11951;52.138;4.464;2022-08-07T14:35:19;25.30;80.10
23546;DHT22;11951;52.138;4.464;2022-08-07T14:37:46;25.00;81.80
23546;DHT22;11951;52.138;4.464;2022-08-07T14:40:17;25.10;81.80
23546;DHT22;11951;52.138;4.464;2022-08-07T14:42:43;25.20;82.10
23546;DHT22;11951;52.138;4.464;2022-08-07T14:45:09;25.20;81.40
23546;DHT22;11951;52.138;4.464;2022-08-07T14:47:38;25.30;82.20
23546;DHT22;11951;52.138;4.464;2022-08-07T14:50:05;25.20;81.50
23546;DHT22;11951;52.138;4.464;2022-08-07T14:52:31;25.30;82.30
23546;DHT22;11951;52.138;4.464;2022-08-07T14:55:01;25.50;81.10
23546;DHT22;11951;52.138;4.464;2022-08-07T14:57:27;25.60;80.20
23546;DHT22;11951;52.138;4.464;2022-08-07T14:59:54;25.50;80.80
23546;DHT22;11951;52.138;4.464;2022-08-07T15:02:23;25.40;82.00
23546;DHT22;11951;52.138;4.464;2022-08-07T15:04:53;25.30;82.60
23546;DHT22;11951;52.138;4.464;2022-08-07T15:07:19;24.90;82.50
23546;DHT22;11951;52.138;4.464;2022-08-07T15:09:51;24.70;83.60
23546;DHT22;11951;52.138;4.464;2022-08-07T15:12:31;24.80;83.40
23546;DHT22;11951;52.138;4.464;2022-08-07T15:18:39;24.90;83.00
23546;DHT22;11951;52.138;4.464;2022-08-07T15:21:11;24.80;82.20
23546;DHT22;11951;52.138;4.464;2022-08-07T15:23:39;24.90;83.70
23546;DHT22;11951;52.138;4.464;2022-08-07T15:26:11;25.20;83.00
23546;DHT22;11951;52.138;4.464;2022-08-07T15:28:41;24.90;83.10
23546;DHT22;11951;52.138;4.464;2022-08-07T15:31:08;24.80;83.40
23546;DHT22;11951;52.138;4.464;2022-08-07T15:34:06;24.70;82.70
23546;DHT22;11951;52.138;4.464;2022-08-07T15:37:08;24.80;84.20
23546;DHT22;11951;52.138;4.464;2022-08-07T15:40:06;25.10;84.20
23546;DHT22;11951;52.138;4.464;2022-08-07T15:45:47;25.10;83.50
23546;DHT22;11951;52.138;4.464;2022-08-07T15:53:32;25.40;83.00
23546;DHT22;11951;52.138;4.464;2022-08-07T15:56:02;25.60;82.60
23546;DHT22;11951;52.138;4.464;2022-08-07T16:10:25;25.30;83.00
23546;DHT22;11951;52.138;4.464;2022-08-07T16:15:40;24.50;85.80
23546;DHT22;11951;52.138;4.464;2022-08-07T16:18:26;24.40;85.90
23546;DHT22;11951;52.138;4.464;2022-08-07T16:21:02;24.50;86.30
23546;DHT22;11951;52.138;4.464;2022-08-07T16:23:32;24.50;86.20
23546;DHT22;11951;52.138;4.464;2022-08-07T16:26:00;24.30;86.70
23546;DHT22;11951;52.138;4.464;2022-08-07T16:33:59;24.20;87.80
23546;DHT22;11951;52.138;4.464;2022-08-07T17:04:52;23.70;89.80
23546;DHT22;11951;52.138;4.464;2022-08-07T17:07:40;23.30;91.70
23546;DHT22;11951;52.138;4.464;2022-08-07T20:54:16;18.50;97.10
23546;DHT22;11951;52.138;4.464;2022-08-07T20:56:48;18.50;97.10
23546;DHT22;11951;52.138;4.464;2022-08-07T20:59:21;18.50;97.10
23546;DHT22;11951;52.138;4.464;2022-08-07T21:01:47;18.40;97.10
23546;DHT22;11951;52.138;4.464;2022-08-07T21:07:47;18.40;97.10
